createdAt,value
2023-04-18T00:01:32.453Z,10.31
2023-04-18T00:03:59.353Z,10.18
2023-04-18T00:06:26.710Z,10.04
2023-04-18T00:08:53.373Z,9.70
2023-04-18T00:11:20.795Z,9.44
2023-04-18T00:13:47.520Z,9.45
2023-04-18T00:16:14.423Z,9.84
2023-04-18T00:18:41.154Z,9.88
2023-04-18T00:21:08.791Z,9.98
2023-04-18T00:23:36.021Z,9.97
2023-04-18T00:26:03.184Z,9.81
2023-04-18T00:28:29.814Z,9.71
2023-04-18T00:30:56.771Z,9.83
2023-04-18T00:33:23.462Z,9.94
2023-04-18T00:35:50.036Z,9.89
2023-04-18T00:38:16.716Z,9.93
2023-04-18T00:40:43.425Z,9.97
2023-04-18T00:43:13.427Z,9.96
2023-04-18T00:45:40.080Z,10.03
2023-04-18T00:48:07.003Z,10.05
2023-04-18T00:50:33.768Z,10.03
2023-04-18T00:53:00.598Z,9.99
2023-04-18T00:55:27.253Z,9.98
2023-04-18T00:57:53.905Z,9.96
2023-04-18T01:00:20.514Z,10.07
2023-04-18T01:02:49.880Z,10.00
2023-04-18T01:05:18.527Z,10.11
2023-04-18T01:07:45.587Z,10.12
2023-04-18T01:10:12.367Z,10.13
2023-04-18T01:12:39.369Z,10.15
2023-04-18T01:15:06.703Z,10.18
2023-04-18T01:17:36.137Z,10.14
2023-04-18T01:20:05.549Z,10.09
2023-04-18T01:22:33.370Z,10.12
2023-04-18T01:25:00.127Z,10.16
2023-04-18T01:27:26.771Z,10.22
2023-04-18T01:29:53.362Z,10.23
2023-04-18T01:32:20.574Z,10.22
2023-04-18T01:34:47.714Z,10.23
2023-04-18T01:37:14.533Z,10.22
2023-04-18T01:39:41.127Z,10.09
2023-04-18T01:42:07.855Z,10.09
2023-04-18T01:44:34.488Z,10.05
2023-04-18T01:47:01.201Z,9.95
2023-04-18T01:49:27.859Z,10.03
2023-04-18T01:51:54.461Z,9.99
2023-04-18T01:54:21.237Z,9.85
2023-04-18T01:56:47.910Z,9.97
2023-04-18T01:59:14.551Z,10.00
2023-04-18T02:01:41.149Z,9.91
2023-04-18T02:04:07.844Z,9.82
2023-04-18T02:06:34.535Z,9.83
2023-04-18T02:09:01.166Z,9.91
2023-04-18T02:11:27.772Z,9.82
2023-04-18T02:13:54.385Z,9.87
2023-04-18T02:16:21.019Z,9.84
2023-04-18T02:18:47.752Z,9.46
2023-04-18T02:21:14.357Z,9.33
2023-04-18T02:23:41.047Z,9.63
2023-04-18T02:26:07.710Z,9.62
2023-04-18T02:28:34.410Z,9.67
2023-04-18T02:31:01.294Z,9.61
2023-04-18T02:33:27.960Z,9.55
2023-04-18T02:35:54.538Z,9.57
2023-04-18T02:38:21.161Z,9.49
2023-04-18T02:40:47.753Z,9.71
2023-04-18T02:43:14.373Z,9.67
2023-04-18T02:45:41.634Z,9.67
2023-04-18T02:48:08.368Z,9.78
2023-04-18T02:50:35.560Z,9.85
2023-04-18T02:53:02.204Z,9.63
2023-04-18T02:55:28.936Z,9.58
2023-04-18T02:57:55.976Z,9.30
2023-04-18T03:00:22.742Z,9.22
2023-04-18T03:02:49.557Z,9.53
2023-04-18T03:05:16.591Z,9.74
2023-04-18T03:07:43.174Z,9.63
2023-04-18T03:10:10.310Z,9.64
2023-04-18T03:12:36.991Z,9.81
2023-04-18T03:15:03.849Z,9.84
2023-04-18T03:17:31.782Z,9.68
2023-04-18T03:19:58.453Z,9.67
2023-04-18T03:22:25.106Z,9.66
2023-04-18T03:24:51.801Z,9.76
2023-04-18T03:27:18.722Z,9.36
2023-04-18T03:29:45.402Z,9.52
2023-04-18T03:32:12.687Z,8.85
2023-04-18T03:34:39.275Z,8.90
2023-04-18T03:37:05.894Z,9.33
2023-04-18T03:39:32.497Z,9.50
2023-04-18T03:41:59.092Z,9.24
2023-04-18T03:44:25.715Z,9.45
2023-04-18T03:46:52.410Z,9.49
2023-04-18T03:49:18.980Z,9.57
2023-04-18T03:51:49.904Z,9.49
2023-04-18T03:54:17.226Z,9.15
2023-04-18T03:56:45.234Z,9.10
2023-04-18T03:59:12.058Z,9.41
2023-04-18T04:01:38.716Z,9.45
2023-04-18T04:04:05.619Z,9.57
2023-04-18T04:06:32.293Z,9.51
2023-04-18T04:08:58.922Z,9.61
2023-04-18T04:11:26.057Z,9.70
2023-04-18T04:13:52.933Z,9.71
2023-04-18T04:16:19.648Z,9.57
2023-04-18T04:18:46.321Z,9.50
2023-04-18T04:21:13.103Z,9.63
2023-04-18T04:23:42.704Z,9.69
2023-04-18T04:26:09.603Z,9.60
2023-04-18T04:28:36.262Z,9.67
2023-04-18T04:31:06.388Z,9.61
2023-04-18T04:33:33.394Z,9.70
2023-04-18T04:36:01.305Z,9.78
2023-04-18T04:38:31.022Z,9.75
2023-04-18T04:40:58.515Z,9.74
2023-04-18T04:43:28.681Z,9.83
2023-04-18T04:45:55.948Z,9.85
2023-04-18T04:48:24.463Z,9.82
2023-04-18T04:50:53.675Z,9.84
2023-04-18T04:53:20.467Z,9.86
2023-04-18T04:55:47.196Z,9.85
2023-04-18T04:58:13.897Z,9.88
2023-04-18T05:00:40.544Z,9.85
2023-04-18T05:03:08.375Z,9.70
2023-04-18T05:05:35.358Z,9.75
2023-04-18T05:08:02.509Z,9.74
2023-04-18T05:10:29.563Z,9.84
2023-04-18T05:12:56.790Z,9.80
2023-04-18T05:15:24.094Z,9.79
2023-04-18T05:17:50.822Z,9.87
2023-04-18T05:20:17.454Z,9.84
2023-04-18T05:22:44.071Z,9.87
2023-04-18T05:25:10.740Z,9.88
2023-04-18T05:27:37.386Z,9.94
2023-04-18T05:30:04.382Z,9.87
2023-04-18T05:32:31.125Z,9.91
2023-04-18T05:34:57.769Z,9.81
2023-04-18T05:37:24.476Z,9.85
2023-04-18T05:39:51.142Z,9.85
2023-04-18T05:42:17.776Z,9.91
2023-04-18T05:44:44.368Z,9.77
2023-04-18T05:47:10.998Z,9.69
2023-04-18T05:49:37.619Z,9.64
2023-04-18T05:52:04.462Z,9.60
2023-04-18T05:54:31.095Z,9.70
2023-04-18T05:56:58.477Z,9.68
2023-04-18T05:59:26.812Z,9.64
2023-04-18T06:01:53.578Z,9.78
2023-04-18T06:04:21.259Z,9.80
2023-04-18T06:06:48.127Z,9.89
2023-04-18T06:09:14.730Z,9.93
2023-04-18T06:11:41.309Z,9.94
2023-04-18T06:14:07.950Z,9.98
2023-04-18T06:16:36.621Z,10.01
2023-04-18T06:19:05.292Z,10.05
2023-04-18T06:21:32.190Z,9.99
2023-04-18T06:23:59.018Z,10.03
2023-04-18T06:26:25.647Z,9.86
2023-04-18T06:28:52.423Z,9.87
2023-04-18T06:31:19.128Z,9.78
2023-04-18T06:33:45.731Z,9.65
2023-04-18T06:36:12.375Z,9.62
2023-04-18T06:38:38.977Z,9.50
2023-04-18T06:41:05.672Z,9.33
2023-04-18T06:43:32.313Z,9.34
2023-04-18T06:45:59.495Z,9.28
2023-04-18T06:48:26.152Z,9.25
2023-04-18T06:50:52.867Z,9.29
2023-04-18T06:53:19.619Z,9.20
2023-04-18T06:55:46.321Z,9.39
2023-04-18T06:58:14.123Z,9.35
2023-04-18T07:00:40.789Z,9.20
2023-04-18T07:03:11.431Z,9.12
2023-04-18T07:05:41.603Z,8.99
2023-04-18T07:08:08.260Z,8.90
2023-04-18T07:10:34.942Z,8.78
2023-04-18T07:13:01.727Z,8.88
2023-04-18T07:15:28.689Z,8.98
2023-04-18T07:17:55.385Z,8.92
2023-04-18T07:20:22.033Z,8.88
2023-04-18T07:22:49.034Z,8.85
2023-04-18T07:25:15.702Z,8.96
2023-04-18T07:27:42.492Z,8.69
2023-04-18T07:30:09.648Z,8.65
2023-04-18T07:32:36.343Z,8.87
2023-04-18T07:35:03.508Z,8.92
2023-04-18T07:37:30.362Z,9.06
2023-04-18T07:39:57.026Z,8.72
2023-04-18T07:42:23.647Z,8.60
2023-04-18T07:44:50.489Z,8.75
2023-04-18T07:47:22.293Z,8.89
2023-04-18T07:49:49.210Z,8.97
2023-04-18T07:52:15.853Z,9.00
2023-04-18T07:54:42.478Z,8.84
2023-04-18T07:57:09.080Z,8.87
2023-04-18T07:59:36.087Z,8.86
2023-04-18T08:02:03.100Z,9.00
2023-04-18T08:04:30.588Z,9.23
2023-04-18T08:06:57.356Z,9.31
2023-04-18T08:09:24.072Z,9.41
2023-04-18T08:11:50.754Z,9.47
2023-04-18T08:14:17.387Z,9.64
2023-04-18T08:16:44.090Z,9.67
2023-04-18T08:19:10.838Z,9.64
2023-04-18T08:21:37.567Z,9.27
2023-04-18T08:24:04.241Z,9.27
2023-04-18T08:26:30.861Z,9.36
2023-04-18T08:28:57.774Z,9.22
2023-04-18T08:31:24.826Z,9.19
2023-04-18T08:33:51.527Z,9.18
2023-04-18T08:36:18.156Z,9.30
2023-04-18T08:38:44.781Z,9.23
2023-04-18T08:41:11.497Z,9.12
2023-04-18T08:43:38.172Z,9.16
2023-04-18T08:46:04.964Z,9.32
2023-04-18T08:48:31.636Z,9.29
2023-04-18T08:50:59.551Z,9.35
2023-04-18T08:53:26.965Z,9.48
2023-04-18T08:55:58.047Z,9.61
2023-04-18T08:58:27.194Z,9.67
2023-04-18T09:00:54.882Z,9.84
2023-04-18T09:03:41.456Z,9.68
2023-04-18T09:06:13.887Z,9.70
2023-04-18T09:08:43.446Z,9.53
2023-04-18T09:11:23.365Z,9.57
2023-04-18T09:13:50.525Z,9.58
2023-04-18T09:16:20.771Z,9.56
2023-04-18T09:19:13.429Z,9.58
2023-04-18T09:21:42.883Z,9.36
2023-04-18T09:24:21.251Z,9.34
2023-04-18T09:26:49.863Z,9.36
2023-04-18T09:29:22.518Z,9.38
2023-04-18T09:32:09.514Z,9.42
2023-04-18T09:34:42.552Z,9.43
2023-04-18T09:37:13.986Z,9.62
2023-04-18T09:39:44.926Z,9.72
2023-04-18T09:42:12.533Z,9.66
2023-04-18T09:44:58.739Z,9.59
2023-04-18T09:47:27.287Z,9.76
2023-04-18T09:49:54.364Z,9.92
2023-04-18T09:52:22.953Z,9.83
2023-04-18T09:54:54.215Z,9.57
2023-04-18T09:57:21.800Z,9.55
2023-04-18T09:59:55.066Z,9.55
2023-04-18T10:02:22.998Z,9.68
2023-04-18T10:04:53.761Z,9.86
2023-04-18T10:07:21.152Z,9.99
2023-04-18T10:09:49.237Z,9.99
2023-04-18T10:12:17.483Z,9.91
2023-04-18T10:14:44.631Z,9.95
2023-04-18T10:17:11.895Z,9.91
2023-04-18T10:19:42.093Z,9.87
2023-04-18T10:22:08.848Z,10.07
2023-04-18T10:24:54.572Z,10.23
2023-04-18T10:27:49.019Z,10.26
2023-04-18T10:30:16.803Z,10.03
2023-04-18T10:32:43.671Z,10.07
2023-04-18T10:35:10.897Z,10.14
2023-04-18T10:37:59.881Z,10.15
2023-04-18T10:40:35.323Z,10.23
2023-04-18T10:43:02.208Z,10.32
2023-04-18T10:45:36.393Z,10.31
2023-04-18T10:48:24.207Z,10.27
2023-04-18T10:51:17.093Z,10.24
2023-04-18T10:53:54.012Z,10.24
2023-04-18T10:56:20.839Z,10.19
2023-04-18T10:58:52.352Z,10.37
2023-04-18T11:01:31.731Z,10.41
2023-04-18T11:03:59.628Z,10.56
2023-04-18T11:06:31.271Z,10.74
2023-04-18T11:09:11.832Z,10.64
2023-04-18T11:11:38.724Z,10.53
2023-04-18T11:14:05.518Z,10.38
2023-04-18T11:16:34.135Z,10.42
2023-04-18T11:19:01.064Z,10.42
2023-04-18T11:21:30.738Z,10.51
2023-04-18T11:23:58.537Z,10.80
2023-04-18T11:26:26.747Z,10.96
2023-04-18T11:28:57.472Z,11.16
2023-04-18T11:31:24.968Z,10.81
2023-04-18T11:33:52.430Z,10.98
2023-04-18T11:36:19.121Z,11.26
2023-04-18T11:38:46.221Z,11.01
2023-04-18T11:41:14.648Z,10.90
2023-04-18T11:43:46.058Z,10.71
2023-04-18T11:46:13.929Z,10.66
2023-04-18T11:48:42.387Z,10.60
2023-04-18T11:51:29.679Z,10.43
2023-04-18T11:53:56.278Z,10.39
2023-04-18T11:56:22.894Z,10.52
2023-04-18T11:58:49.619Z,10.33
2023-04-18T12:01:20.546Z,10.71
2023-04-18T12:04:07.128Z,10.87
2023-04-18T12:07:00.167Z,10.92
2023-04-18T12:09:26.764Z,11.24
2023-04-18T12:12:01.048Z,11.18
2023-04-18T12:14:28.440Z,10.83
2023-04-18T12:16:55.590Z,11.01
2023-04-18T12:19:30.000Z,11.28
2023-04-18T12:22:01.475Z,11.06
2023-04-18T12:24:32.222Z,11.15
2023-04-18T12:26:59.775Z,10.88
2023-04-18T12:29:28.589Z,11.09
2023-04-18T12:31:55.700Z,11.22
2023-04-18T12:34:22.366Z,11.31
2023-04-18T12:36:49.005Z,11.08
2023-04-18T12:39:15.607Z,10.92
2023-04-18T12:41:43.452Z,11.09
2023-04-18T12:44:10.166Z,11.32
2023-04-18T12:46:36.807Z,10.95
2023-04-18T12:49:03.569Z,10.75
2023-04-18T12:51:30.235Z,10.44
2023-04-18T12:53:56.846Z,10.40
2023-04-18T12:56:23.704Z,10.13
2023-04-18T12:58:50.755Z,10.07
2023-04-18T13:01:17.459Z,10.17
2023-04-18T13:03:45.588Z,10.40
2023-04-18T13:06:15.687Z,10.72
2023-04-18T13:08:42.779Z,10.60
2023-04-18T13:11:09.422Z,10.73
2023-04-18T13:13:36.297Z,10.90
2023-04-18T13:16:02.967Z,10.63
2023-04-18T13:18:29.574Z,10.58
2023-04-18T13:20:56.306Z,10.43
2023-04-18T13:23:22.898Z,10.52
2023-04-18T13:25:49.528Z,10.63
2023-04-18T13:28:16.119Z,10.46
2023-04-18T13:30:42.753Z,10.34
2023-04-18T13:33:10.305Z,10.22
2023-04-18T13:35:37.174Z,10.34
2023-04-18T13:38:04.050Z,10.48
2023-04-18T13:40:30.738Z,10.52
2023-04-18T13:42:57.367Z,10.84
2023-04-18T13:45:23.957Z,10.94
2023-04-18T13:47:50.924Z,10.69
2023-04-18T13:50:17.577Z,10.56
2023-04-18T13:52:44.200Z,10.43
2023-04-18T13:55:10.929Z,10.27
2023-04-18T13:57:37.626Z,10.05
2023-04-18T14:00:06.589Z,10.16
2023-04-18T14:02:33.485Z,10.18
2023-04-18T14:05:00.412Z,10.32
2023-04-18T14:07:27.194Z,10.49
2023-04-18T14:09:54.030Z,10.32
2023-04-18T14:12:21.116Z,10.38
2023-04-18T14:14:47.969Z,10.27
2023-04-18T14:17:14.645Z,10.43
2023-04-18T14:19:41.529Z,10.34
2023-04-18T14:22:08.157Z,10.22
2023-04-18T14:24:37.631Z,10.05
2023-04-18T14:27:04.500Z,10.23
2023-04-18T14:29:31.209Z,10.32
2023-04-18T14:31:57.967Z,10.55
2023-04-18T14:34:24.633Z,10.32
2023-04-18T14:36:51.275Z,10.35
2023-04-18T14:39:17.898Z,10.37
2023-04-18T14:41:45.883Z,10.21
2023-04-18T14:44:13.608Z,10.20
2023-04-18T14:46:40.369Z,10.15
2023-04-18T14:49:07.044Z,10.16
2023-04-18T14:51:33.678Z,10.37
2023-04-18T14:54:00.495Z,10.42
2023-04-18T14:56:27.308Z,10.33
2023-04-18T14:58:53.903Z,10.46
2023-04-18T15:01:20.612Z,10.85
2023-04-18T15:03:47.724Z,11.12
2023-04-18T15:06:14.537Z,11.19
2023-04-18T15:08:44.145Z,11.31
2023-04-18T15:11:10.797Z,11.37
2023-04-18T15:13:37.397Z,11.07
2023-04-18T15:16:04.195Z,10.70
2023-04-18T15:18:30.882Z,10.15
2023-04-18T15:20:59.696Z,10.23
2023-04-18T15:23:26.578Z,10.29
2023-04-18T15:25:53.227Z,10.52
2023-04-18T15:28:19.914Z,10.66
2023-04-18T15:30:46.733Z,10.85
2023-04-18T15:33:13.918Z,10.88
2023-04-18T15:35:40.538Z,10.99
2023-04-18T15:38:07.334Z,10.49
2023-04-18T15:40:36.235Z,10.60
2023-04-18T15:43:03.157Z,10.69
2023-04-18T15:45:30.237Z,10.87
2023-04-18T15:47:56.900Z,11.03
2023-04-18T15:50:24.266Z,10.89
2023-04-18T15:52:50.901Z,11.04
2023-04-18T15:55:17.560Z,11.20
2023-04-18T15:57:44.255Z,11.23
2023-04-18T16:00:18.029Z,11.30
2023-04-18T16:02:45.989Z,11.24
2023-04-18T16:05:13.868Z,11.26
2023-04-18T16:07:41.442Z,11.18
2023-04-18T16:10:10.489Z,11.20
2023-04-18T16:12:38.371Z,11.12
2023-04-18T16:15:09.497Z,11.00
2023-04-18T16:17:37.541Z,11.06
2023-04-18T16:20:06.293Z,10.66
2023-04-18T16:22:33.187Z,10.53
2023-04-18T16:24:59.950Z,10.40
2023-04-18T16:27:26.611Z,10.57
2023-04-18T16:29:53.918Z,10.64
2023-04-18T16:32:21.228Z,10.70
2023-04-18T16:34:48.555Z,10.63
2023-04-18T16:37:15.556Z,10.74
2023-04-18T16:39:42.214Z,10.62
2023-04-18T16:42:08.852Z,10.44
2023-04-18T16:44:35.463Z,10.51
2023-04-18T16:47:02.150Z,10.57
2023-04-18T16:49:28.802Z,10.46
2023-04-18T16:51:55.420Z,10.50
2023-04-18T16:54:22.030Z,10.32
2023-04-18T16:56:48.770Z,10.40
2023-04-18T16:59:15.396Z,10.29
2023-04-18T17:01:42.157Z,10.41
2023-04-18T17:04:08.871Z,10.40
2023-04-18T17:06:35.584Z,10.25
2023-04-18T17:09:02.265Z,10.35
2023-04-18T17:11:28.922Z,10.28
2023-04-18T17:13:56.383Z,10.17
2023-04-18T17:16:23.119Z,10.48
2023-04-18T17:18:49.777Z,10.65
2023-04-18T17:21:16.427Z,10.83
2023-04-18T17:23:43.115Z,10.77
2023-04-18T17:26:09.984Z,10.95
2023-04-18T17:28:37.052Z,11.04
2023-04-18T17:31:03.936Z,10.95
2023-04-18T17:33:31.336Z,11.12
2023-04-18T17:35:58.590Z,11.18
2023-04-18T17:38:25.384Z,11.21
2023-04-18T17:41:02.435Z,11.27
2023-04-18T17:43:29.544Z,11.26
2023-04-18T17:45:59.773Z,11.30
2023-04-18T17:48:26.475Z,11.35
2023-04-18T17:50:53.103Z,11.28
2023-04-18T17:53:19.798Z,11.34
2023-04-18T17:55:48.903Z,11.38
2023-04-18T17:58:16.943Z,11.36
2023-04-18T18:00:43.771Z,11.37
2023-04-18T18:03:13.901Z,11.34
2023-04-18T18:05:41.573Z,11.37
2023-04-18T18:08:08.229Z,11.41
2023-04-18T18:10:34.916Z,11.41
2023-04-18T18:13:01.669Z,11.42
2023-04-18T18:15:28.564Z,11.41
2023-04-18T18:17:55.765Z,11.44
2023-04-18T18:20:22.878Z,11.43
2023-04-18T18:22:49.645Z,11.37
2023-04-18T18:25:16.436Z,11.33
2023-04-18T18:27:43.082Z,11.23
2023-04-18T18:30:10.028Z,11.31
2023-04-18T18:32:36.705Z,11.23
2023-04-18T18:35:05.655Z,11.26
2023-04-18T18:37:33.087Z,11.26
2023-04-18T18:39:59.974Z,11.24
2023-04-18T18:42:26.620Z,11.28
2023-04-18T18:44:53.239Z,11.32
2023-04-18T18:47:19.958Z,11.29
2023-04-18T18:49:47.475Z,11.28
2023-04-18T18:52:14.280Z,11.31
2023-04-18T18:54:40.973Z,11.27
2023-04-18T18:57:08.879Z,11.27
2023-04-18T18:59:35.876Z,11.28
2023-04-18T19:02:02.714Z,11.30
2023-04-18T19:04:29.605Z,11.30
2023-04-18T19:06:56.332Z,11.28
2023-04-18T19:09:22.999Z,11.30
2023-04-18T19:11:49.757Z,11.28
2023-04-18T19:14:16.453Z,11.26
2023-04-18T19:16:43.200Z,11.26
2023-04-18T19:19:10.261Z,11.21
2023-04-18T19:21:36.972Z,11.06
2023-04-18T19:24:03.770Z,11.07
2023-04-18T19:26:30.456Z,11.00
2023-04-18T19:28:57.207Z,10.94
2023-04-18T19:31:23.922Z,10.82
2023-04-18T19:33:50.690Z,10.76
2023-04-18T19:36:17.309Z,10.77
2023-04-18T19:38:43.908Z,10.86
2023-04-18T19:41:10.672Z,10.84
2023-04-18T19:43:38.531Z,10.87
2023-04-18T19:46:05.324Z,10.82
2023-04-18T19:48:32.040Z,10.77
2023-04-18T19:50:58.758Z,10.83
2023-04-18T19:53:25.930Z,10.73
2023-04-18T19:55:53.831Z,10.73
2023-04-18T19:58:44.992Z,10.57
2023-04-18T20:01:12.888Z,10.63
2023-04-18T20:03:40.503Z,10.72
2023-04-18T20:06:07.673Z,10.76
2023-04-18T20:08:39.056Z,10.85
2023-04-18T20:11:10.462Z,10.82
2023-04-18T20:13:37.802Z,10.81
2023-04-18T20:16:09.014Z,10.87
2023-04-18T20:18:41.032Z,10.93
2023-04-18T20:21:08.911Z,10.90
2023-04-18T20:23:36.750Z,10.91
2023-04-18T20:26:04.411Z,10.92
2023-04-18T20:28:31.841Z,10.93
2023-04-18T20:30:58.952Z,10.90
2023-04-18T20:33:25.808Z,10.90
2023-04-18T20:35:54.751Z,10.35
2023-04-18T20:38:25.860Z,9.95
2023-04-18T20:40:53.307Z,10.08
2023-04-18T20:43:20.160Z,10.34
2023-04-18T20:45:51.059Z,10.36
2023-04-18T20:48:18.520Z,10.35
2023-04-18T20:50:51.013Z,10.56
2023-04-18T20:53:21.457Z,10.57
2023-04-18T20:55:48.901Z,10.51
2023-04-18T20:58:15.814Z,10.45
2023-04-18T21:00:43.707Z,10.49
2023-04-18T21:03:13.324Z,10.62
2023-04-18T21:05:40.275Z,10.60
2023-04-18T21:08:06.915Z,10.64
2023-04-18T21:10:34.042Z,10.71
2023-04-18T21:13:00.627Z,10.78
2023-04-18T21:15:27.260Z,10.81
2023-04-18T21:17:53.981Z,10.81
2023-04-18T21:20:20.718Z,10.75
2023-04-18T21:22:47.311Z,10.80
2023-04-18T21:25:13.917Z,10.81
2023-04-18T21:27:40.588Z,10.81
2023-04-18T21:30:07.850Z,10.82
2023-04-18T21:32:34.546Z,10.88
2023-04-18T21:35:01.638Z,10.84
2023-04-18T21:37:28.352Z,10.82
2023-04-18T21:39:55.215Z,10.84
2023-04-18T21:42:21.823Z,10.82
2023-04-18T21:44:48.481Z,10.84
2023-04-18T21:47:15.086Z,10.85
2023-04-18T21:49:42.731Z,10.85
2023-04-18T21:52:09.410Z,10.83
2023-04-18T21:54:36.041Z,10.83
2023-04-18T21:57:02.810Z,10.82
2023-04-18T21:59:29.889Z,10.82
2023-04-18T22:01:56.650Z,10.81
2023-04-18T22:04:26.060Z,10.81
2023-04-18T22:06:56.958Z,10.81
2023-04-18T22:09:23.745Z,10.86
2023-04-18T22:11:56.842Z,10.86
2023-04-18T22:14:24.940Z,10.85
2023-04-18T22:16:51.776Z,10.86
2023-04-18T22:19:19.301Z,10.90
2023-04-18T22:21:46.218Z,10.91
2023-04-18T22:24:13.050Z,10.90
2023-04-18T22:26:40.379Z,10.82
2023-04-18T22:29:06.990Z,10.68
2023-04-18T22:31:33.733Z,10.69
2023-04-18T22:34:00.348Z,10.82
2023-04-18T22:36:27.780Z,10.72
2023-04-18T22:38:54.500Z,10.65
2023-04-18T22:41:21.289Z,10.65
2023-04-18T22:43:47.908Z,10.68
2023-04-18T22:46:14.599Z,10.70
2023-04-18T22:48:41.251Z,10.55
2023-04-18T22:51:07.858Z,10.19
2023-04-18T22:53:34.564Z,10.45
2023-04-18T22:56:01.166Z,10.59
2023-04-18T22:58:27.860Z,10.65
2023-04-18T23:00:54.516Z,10.68
2023-04-18T23:03:21.283Z,10.63
2023-04-18T23:05:47.996Z,10.54
2023-04-18T23:08:14.614Z,10.48
2023-04-18T23:10:41.227Z,10.46
2023-04-18T23:13:07.838Z,10.51
2023-04-18T23:15:34.471Z,10.52
2023-04-18T23:18:01.157Z,10.62
2023-04-18T23:20:27.842Z,10.52
2023-04-18T23:22:55.448Z,10.45
2023-04-18T23:25:22.154Z,10.39
2023-04-18T23:27:48.769Z,10.14
2023-04-18T23:30:15.477Z,10.27
2023-04-18T23:32:42.212Z,10.40
2023-04-18T23:35:10.976Z,10.45
2023-04-18T23:37:37.603Z,10.42
2023-04-18T23:40:06.855Z,10.31
2023-04-18T23:42:37.075Z,10.32
2023-04-18T23:45:04.539Z,10.38
2023-04-18T23:47:31.301Z,10.46
2023-04-18T23:49:58.046Z,10.51
2023-04-18T23:52:24.714Z,10.58
2023-04-18T23:54:51.784Z,10.56
2023-04-18T23:57:18.400Z,10.59
2023-04-18T23:59:44.981Z,10.54
